createdAt,value
2022-12-11T00:04:09.634Z,1.75
2022-12-11T00:09:08.477Z,1.29
2022-12-11T00:14:07.240Z,1.65
2022-12-11T00:19:06.334Z,1.59
2022-12-11T00:24:05.554Z,1.79
2022-12-11T00:29:04.586Z,1.37
2022-12-11T00:34:03.316Z,1.74
2022-12-11T00:39:03.817Z,1.70
2022-12-11T00:44:02.654Z,1.15
2022-12-11T00:49:02.032Z,1.43
2022-12-11T00:54:00.825Z,0.75
2022-12-11T00:58:59.682Z,1.05
2022-12-11T01:03:58.441Z,1.06
2022-12-11T01:09:15.702Z,0.89
2022-12-11T01:14:14.690Z,0.95
2022-12-11T01:19:13.452Z,1.13
2022-12-11T01:24:12.163Z,1.07
2022-12-11T01:29:11.272Z,0.91
2022-12-11T01:34:10.235Z,6.11
2022-12-11T01:39:09.060Z,2.93
2022-12-11T01:44:13.951Z,1.79
2022-12-11T01:49:15.191Z,1.32
2022-12-11T01:54:17.426Z,1.15
2022-12-11T01:59:23.368Z,1.19
2022-12-11T02:04:23.384Z,1.16
2022-12-11T02:09:26.410Z,1.14
2022-12-11T02:14:34.418Z,1.01
2022-12-11T02:19:48.343Z,0.83
2022-12-11T02:25:05.783Z,0.96
2022-12-11T02:30:06.850Z,1.51
2022-12-11T02:35:19.216Z,1.03
2022-12-11T02:40:24.977Z,1.15
2022-12-11T02:45:26.238Z,1.37
2022-12-11T02:50:26.348Z,1.15
2022-12-11T02:55:28.667Z,1.00
2022-12-11T03:00:28.444Z,1.54
2022-12-11T03:05:27.985Z,0.20
2022-12-11T03:10:26.721Z,0.70
2022-12-11T03:15:42.241Z,0.76
2022-12-11T03:20:51.245Z,0.55
2022-12-11T03:26:06.186Z,0.20
2022-12-11T03:31:11.196Z,0.66
2022-12-11T03:36:19.114Z,0.98
2022-12-11T03:41:22.008Z,1.03
2022-12-11T03:46:30.190Z,1.05
2022-12-11T03:51:32.513Z,1.25
2022-12-11T03:56:34.985Z,1.01
2022-12-11T04:01:33.812Z,1.18
2022-12-11T04:06:32.611Z,0.57
2022-12-11T04:11:37.340Z,0.68
2022-12-11T04:16:36.156Z,0.54
2022-12-11T04:21:53.519Z,0.12
2022-12-11T04:26:52.300Z,0.09
2022-12-11T04:31:51.184Z,1.00
2022-12-11T04:36:50.555Z,0.80
2022-12-11T04:41:49.400Z,0.82
2022-12-11T04:46:48.235Z,0.02
2022-12-11T04:51:47.017Z,0.24
2022-12-11T04:56:45.827Z,0.03
2022-12-11T05:01:44.803Z,-0.30
2022-12-11T05:06:43.919Z,0.62
2022-12-11T05:11:42.883Z,0.36
2022-12-11T05:16:41.632Z,0.01
2022-12-11T05:21:40.458Z,0.16
2022-12-11T05:26:39.227Z,0.42
2022-12-11T05:31:38.054Z,0.59
2022-12-11T05:36:37.009Z,0.21
2022-12-11T05:41:35.811Z,-0.16
2022-12-11T05:46:35.704Z,-0.49
2022-12-11T05:51:35.082Z,-1.08
2022-12-11T05:56:35.930Z,-0.71
2022-12-11T06:01:38.335Z,0.02
2022-12-11T06:06:37.799Z,0.41
2022-12-11T06:11:36.567Z,0.56
2022-12-11T06:16:35.530Z,0.40
2022-12-11T06:21:34.457Z,-0.76
2022-12-11T06:26:33.318Z,-0.82
2022-12-11T06:31:32.179Z,-1.01
2022-12-11T06:36:30.964Z,-1.41
2022-12-11T06:41:29.865Z,-1.25
2022-12-11T06:46:28.832Z,-1.13
2022-12-11T06:51:27.700Z,-1.19
2022-12-11T06:56:26.526Z,-1.42
2022-12-11T07:01:27.773Z,-1.49
2022-12-11T07:06:28.443Z,-1.36
2022-12-11T07:11:27.281Z,-1.01
2022-12-11T07:16:26.389Z,-1.33
2022-12-11T07:21:25.349Z,-1.67
2022-12-11T07:26:24.157Z,-1.89
2022-12-11T07:31:25.065Z,-1.56
2022-12-11T07:36:24.532Z,-1.53
2022-12-11T07:41:23.726Z,-1.54
2022-12-11T07:46:27.745Z,-1.52
2022-12-11T07:51:29.850Z,-1.24
2022-12-11T07:56:30.376Z,-0.93
2022-12-11T08:01:32.161Z,-0.73
2022-12-11T08:06:33.574Z,-1.63
2022-12-11T08:11:32.397Z,-1.14
2022-12-11T08:16:31.939Z,-1.06
2022-12-11T08:21:30.763Z,-1.40
2022-12-11T08:26:33.703Z,-1.50
2022-12-11T08:31:33.217Z,-1.09
2022-12-11T08:36:32.662Z,-1.08
2022-12-11T08:41:31.796Z,-0.94
2022-12-11T08:46:32.638Z,-1.16
2022-12-11T08:51:31.921Z,-1.52
2022-12-11T08:56:30.850Z,-1.92
2022-12-11T09:01:30.027Z,-0.96
2022-12-11T09:06:30.712Z,-1.16
2022-12-11T09:11:32.944Z,-1.53
2022-12-11T09:16:32.525Z,-1.48
2022-12-11T09:21:31.369Z,-1.36
2022-12-11T09:26:31.388Z,-1.43
2022-12-11T09:31:34.401Z,-1.38
2022-12-11T09:36:33.996Z,-1.36
2022-12-11T09:41:38.010Z,-1.18
2022-12-11T09:46:39.141Z,-1.34
2022-12-11T09:51:48.030Z,-1.33
2022-12-11T09:57:02.360Z,-1.34
2022-12-11T10:02:18.993Z,-1.20
2022-12-11T10:07:30.879Z,-0.38
2022-12-11T10:13:11.003Z,-0.87
2022-12-11T10:18:15.910Z,-1.20
2022-12-11T10:23:40.479Z,-0.67
2022-12-11T10:28:39.535Z,-0.91
2022-12-11T10:33:41.382Z,-0.44
2022-12-11T10:38:47.863Z,-0.49
2022-12-11T10:43:49.869Z,0.32
2022-12-11T10:48:55.415Z,0.55
2022-12-11T10:54:02.653Z,-0.36
2022-12-11T10:59:05.410Z,-0.38
2022-12-11T11:04:14.514Z,-1.03
2022-12-11T11:09:35.606Z,-0.69
2022-12-11T11:14:34.348Z,-0.33
2022-12-11T11:19:36.953Z,0.01
2022-12-11T11:24:56.150Z,0.29
2022-12-11T11:29:58.371Z,-0.34
2022-12-11T11:35:12.333Z,-0.60
2022-12-11T11:40:22.059Z,-0.62
2022-12-11T11:45:27.224Z,-0.74
2022-12-11T11:50:33.837Z,-1.09
2022-12-11T11:55:47.532Z,-1.33
2022-12-11T12:00:46.413Z,-1.21
2022-12-11T12:06:12.075Z,-0.90
2022-12-11T12:11:30.905Z,-0.83
2022-12-11T12:16:53.113Z,-1.13
2022-12-11T12:21:53.245Z,3.14
2022-12-11T12:27:50.514Z,5.95
2022-12-11T12:32:39.936Z,1.48
2022-12-11T12:37:54.062Z,-0.35
2022-12-11T12:42:55.835Z,-1.09
2022-12-11T12:47:54.837Z,-1.16
2022-12-11T12:52:56.226Z,-0.83
2022-12-11T12:58:05.273Z,-0.95
2022-12-11T13:03:17.933Z,-0.48
2022-12-11T13:08:25.642Z,-0.10
2022-12-11T13:13:38.118Z,0.03
2022-12-11T13:18:39.585Z,0.51
2022-12-11T13:23:40.335Z,0.05
2022-12-11T13:28:38.992Z,0.18
2022-12-11T13:33:51.225Z,-0.11
2022-12-11T13:39:04.720Z,-0.71
2022-12-11T13:44:05.650Z,-0.39
2022-12-11T13:49:07.532Z,-0.18
2022-12-11T13:54:19.645Z,-0.96
2022-12-11T13:59:29.012Z,-1.35
2022-12-11T14:04:29.164Z,-1.22
2022-12-11T14:09:28.671Z,-1.12
2022-12-11T14:14:43.614Z,-0.97
2022-12-11T14:19:48.035Z,-1.27
2022-12-11T14:24:55.988Z,-1.56
2022-12-11T14:29:55.623Z,-1.79
2022-12-11T14:34:55.387Z,-1.63
2022-12-11T14:39:56.938Z,-1.82
2022-12-11T14:45:03.292Z,-1.41
2022-12-11T14:50:25.919Z,2.40
2022-12-11T14:55:28.629Z,-0.26
2022-12-11T15:00:32.307Z,-1.19
2022-12-11T15:05:37.195Z,-1.36
2022-12-11T15:10:42.808Z,-1.82
2022-12-11T15:15:48.288Z,-1.43
2022-12-11T15:20:55.110Z,-1.56
2022-12-11T15:25:56.791Z,-1.22
2022-12-11T15:30:58.677Z,-1.31
2022-12-11T15:36:06.126Z,-1.30
2022-12-11T15:41:06.249Z,-1.60
2022-12-11T15:46:05.849Z,-1.54
2022-12-11T15:51:04.600Z,-1.24
2022-12-11T15:56:03.410Z,-1.14
2022-12-11T16:01:02.308Z,-1.38
2022-12-11T16:06:01.199Z,-1.48
2022-12-11T16:11:00.242Z,-1.28
2022-12-11T16:15:59.463Z,-1.43
2022-12-11T16:20:58.667Z,-1.50
2022-12-11T16:25:57.702Z,-1.26
2022-12-11T16:30:56.465Z,-0.90
2022-12-11T16:35:55.574Z,-1.00
2022-12-11T16:41:02.071Z,-1.52
2022-12-11T16:46:00.965Z,-1.42
2022-12-11T16:50:59.779Z,-1.69
2022-12-11T16:55:58.800Z,-1.62
2022-12-11T17:01:02.241Z,-1.83
2022-12-11T17:06:01.256Z,-2.15
2022-12-11T17:10:59.962Z,-2.12
2022-12-11T17:15:58.933Z,-1.76
2022-12-11T17:20:57.851Z,-1.68
2022-12-11T17:25:56.793Z,-1.50
2022-12-11T17:30:55.899Z,-1.36
2022-12-11T17:35:55.398Z,-1.71
2022-12-11T17:40:55.306Z,-1.74
2022-12-11T17:45:55.445Z,-1.60
2022-12-11T17:50:55.088Z,-1.60
2022-12-11T17:55:54.025Z,-1.83
2022-12-11T18:00:55.773Z,-1.82
2022-12-11T18:05:56.983Z,-1.79
2022-12-11T18:10:56.728Z,-1.96
2022-12-11T18:16:25.787Z,6.14
2022-12-11T18:21:28.086Z,5.28
2022-12-11T18:26:27.442Z,2.06
2022-12-11T18:31:26.358Z,-0.31
2022-12-11T18:36:25.420Z,-0.88
2022-12-11T18:41:24.912Z,-1.37
2022-12-11T18:46:24.366Z,-1.04
2022-12-11T18:51:26.553Z,-1.06
2022-12-11T18:56:25.272Z,-1.28
2022-12-11T19:01:26.920Z,-1.59
2022-12-11T19:06:30.221Z,-1.52
2022-12-11T19:11:31.087Z,-1.44
2022-12-11T19:16:35.859Z,-0.59
2022-12-11T19:21:36.757Z,-0.12
2022-12-11T19:26:36.580Z,-1.15
2022-12-11T19:31:35.829Z,-1.10
2022-12-11T19:36:36.661Z,-1.35
2022-12-11T19:41:36.076Z,-1.13
2022-12-11T19:46:35.874Z,-1.59
2022-12-11T19:51:38.823Z,-1.68
2022-12-11T19:56:38.103Z,-1.34
2022-12-11T20:01:38.285Z,-1.34
2022-12-11T20:06:39.457Z,-1.61
2022-12-11T20:11:40.317Z,-1.46
2022-12-11T20:17:09.393Z,-1.56
2022-12-11T20:21:58.160Z,-1.45
2022-12-11T20:26:57.463Z,-1.37
2022-12-11T20:31:56.371Z,-1.58
2022-12-11T20:36:56.441Z,-1.68
2022-12-11T20:41:55.344Z,-1.40
2022-12-11T20:46:54.305Z,-1.62
2022-12-11T20:51:53.169Z,-1.34
2022-12-11T20:56:51.900Z,-1.59
2022-12-11T21:01:51.050Z,-1.49
2022-12-11T21:06:55.131Z,-1.98
2022-12-11T21:11:56.547Z,-1.86
2022-12-11T21:16:55.611Z,-2.05
2022-12-11T21:21:54.444Z,-2.02
2022-12-11T21:26:55.767Z,-2.24
2022-12-11T21:31:54.963Z,-1.92
2022-12-11T21:36:57.204Z,-2.20
2022-12-11T21:41:58.248Z,-1.80
2022-12-11T21:46:57.282Z,-2.18
2022-12-11T21:51:56.059Z,-2.05
2022-12-11T21:56:55.116Z,-2.05
2022-12-11T22:01:54.438Z,-2.33
2022-12-11T22:06:53.433Z,-2.27
2022-12-11T22:11:57.936Z,-2.28
2022-12-11T22:16:58.988Z,-2.07
2022-12-11T22:21:57.931Z,-2.15
2022-12-11T22:26:56.892Z,-2.17
2022-12-11T22:31:55.724Z,-1.74
2022-12-11T22:36:54.508Z,-2.26
2022-12-11T22:41:53.350Z,-2.02
2022-12-11T22:46:52.048Z,-0.04
2022-12-11T22:51:50.940Z,0.58
2022-12-11T22:56:50.276Z,-1.63
2022-12-11T23:01:49.604Z,-1.85
2022-12-11T23:06:48.428Z,-1.88
2022-12-11T23:11:47.183Z,-1.93
2022-12-11T23:16:45.981Z,-2.30
2022-12-11T23:21:45.005Z,-2.08
2022-12-11T23:26:44.200Z,-1.88
2022-12-11T23:31:42.924Z,-2.11
2022-12-11T23:36:41.735Z,-1.80
2022-12-11T23:41:40.471Z,-2.03
2022-12-11T23:46:39.301Z,-2.07
2022-12-11T23:51:39.058Z,-2.17
2022-12-11T23:56:38.767Z,-2.24
